sensor_id;sensor_type;location;lat;lon;timestamp;pressure;altitude;pressure_sealevel;temperature;humidity
19884;BME280;10104;50.732;10.174;2023-04-22T00:00:05;97333.88;;;12.94;69.45
19884;BME280;10104;50.732;10.174;2023-04-22T00:02:29;97334.34;;;12.84;70.70
19884;BME280;10104;50.732;10.174;2023-04-22T00:04:50;97329.50;;;12.75;69.37
19884;BME280;10104;50.732;10.174;2023-04-22T00:07:14;97326.50;;;12.71;69.08
19884;BME280;10104;50.732;10.174;2023-04-22T00:09:35;97328.84;;;12.79;69.21
19884;BME280;10104;50.732;10.174;2023-04-22T00:11:57;97327.81;;;12.55;71.58
19884;BME280;10104;50.732;10.174;2023-04-22T00:14:19;97334.13;;;12.54;71.53
19884;BME280;10104;50.732;10.174;2023-04-22T00:16:40;97331.97;;;12.45;72.31
19884;BME280;10104;50.732;10.174;2023-04-22T00:19:03;97331.69;;;12.53;72.45
19884;BME280;10104;50.732;10.174;2023-04-22T00:21:25;97332.09;;;12.56;72.07
19884;BME280;10104;50.732;10.174;2023-04-22T00:23:47;97330.91;;;12.52;71.52
19884;BME280;10104;50.732;10.174;2023-04-22T00:26:09;97331.41;;;12.68;70.52
19884;BME280;10104;50.732;10.174;2023-04-22T00:28:30;97319.50;;;12.45;73.66
19884;BME280;10104;50.732;10.174;2023-04-22T00:30:52;97321.06;;;12.53;72.86
19884;BME280;10104;50.732;10.174;2023-04-22T00:33:13;97322.38;;;12.44;73.02
19884;BME280;10104;50.732;10.174;2023-04-22T00:35:35;97328.66;;;12.49;72.62
19884;BME280;10104;50.732;10.174;2023-04-22T00:37:56;97327.00;;;12.55;73.28
19884;BME280;10104;50.732;10.174;2023-04-22T00:40:18;97329.59;;;12.62;73.06
19884;BME280;10104;50.732;10.174;2023-04-22T00:42:42;97320.28;;;12.52;74.40
19884;BME280;10104;50.732;10.174;2023-04-22T00:45:04;97340.06;;;12.56;74.44
19884;BME280;10104;50.732;10.174;2023-04-22T00:47:30;97337.59;;;12.55;73.41
19884;BME280;10104;50.732;10.174;2023-04-22T00:49:53;97332.75;;;12.52;75.11
19884;BME280;10104;50.732;10.174;2023-04-22T00:52:15;97327.56;;;12.26;75.50
19884;BME280;10104;50.732;10.174;2023-04-22T00:54:36;97333.50;;;12.28;75.70
19884;BME280;10104;50.732;10.174;2023-04-22T00:56:58;97330.22;;;12.26;76.45
19884;BME280;10104;50.732;10.174;2023-04-22T00:59:21;97330.44;;;12.24;75.08
19884;BME280;10104;50.732;10.174;2023-04-22T01:01:43;97328.63;;;12.18;76.77
19884;BME280;10104;50.732;10.174;2023-04-22T01:04:05;97325.19;;;12.11;77.61
19884;BME280;10104;50.732;10.174;2023-04-22T01:06:28;97336.31;;;12.33;75.57
19884;BME280;10104;50.732;10.174;2023-04-22T01:08:51;97344.28;;;12.33;75.41
19884;BME280;10104;50.732;10.174;2023-04-22T01:11:13;97344.72;;;12.23;77.31
19884;BME280;10104;50.732;10.174;2023-04-22T01:13:34;97340.56;;;12.40;75.63
19884;BME280;10104;50.732;10.174;2023-04-22T01:15:59;97345.97;;;12.21;76.47
19884;BME280;10104;50.732;10.174;2023-04-22T01:18:21;97343.66;;;12.31;76.76
19884;BME280;10104;50.732;10.174;2023-04-22T01:20:43;97341.72;;;12.51;74.63
19884;BME280;10104;50.732;10.174;2023-04-22T01:23:40;97346.34;;;12.62;73.94
19884;BME280;10104;50.732;10.174;2023-04-22T01:25:54;97345.00;;;12.78;72.29
19884;BME280;10104;50.732;10.174;2023-04-22T01:28:17;97348.66;;;12.83;72.95
19884;BME280;10104;50.732;10.174;2023-04-22T01:30:40;97350.19;;;12.66;74.41
19884;BME280;10104;50.732;10.174;2023-04-22T01:33:01;97347.28;;;12.74;73.31
19884;BME280;10104;50.732;10.174;2023-04-22T01:35:23;97356.19;;;12.86;73.10
19884;BME280;10104;50.732;10.174;2023-04-22T01:37:44;97349.03;;;12.87;72.53
19884;BME280;10104;50.732;10.174;2023-04-22T01:40:08;97344.75;;;12.86;72.58
19884;BME280;10104;50.732;10.174;2023-04-22T01:42:30;97355.78;;;12.89;72.24
19884;BME280;10104;50.732;10.174;2023-04-22T01:44:52;97362.28;;;12.93;72.86
19884;BME280;10104;50.732;10.174;2023-04-22T01:47:13;97351.97;;;13.04;71.89
19884;BME280;10104;50.732;10.174;2023-04-22T01:49:35;97353.22;;;13.01;72.96
19884;BME280;10104;50.732;10.174;2023-04-22T01:51:57;97352.38;;;13.07;70.98
19884;BME280;10104;50.732;10.174;2023-04-22T01:54:18;97347.25;;;13.12;70.49
19884;BME280;10104;50.732;10.174;2023-04-22T01:56:40;97349.69;;;13.14;70.17
19884;BME280;10104;50.732;10.174;2023-04-22T01:59:03;97349.72;;;13.07;71.69
19884;BME280;10104;50.732;10.174;2023-04-22T02:01:25;97352.69;;;12.92;73.46
19884;BME280;10104;50.732;10.174;2023-04-22T02:03:47;97354.69;;;12.97;72.99
19884;BME280;10104;50.732;10.174;2023-04-22T02:06:08;97350.88;;;13.18;70.88
19884;BME280;10104;50.732;10.174;2023-04-22T02:08:30;97360.31;;;13.14;70.11
19884;BME280;10104;50.732;10.174;2023-04-22T02:10:51;97353.97;;;12.83;74.03
19884;BME280;10104;50.732;10.174;2023-04-22T02:13:13;97352.47;;;12.94;72.99
19884;BME280;10104;50.732;10.174;2023-04-22T02:15:34;97356.97;;;12.93;72.52
19884;BME280;10104;50.732;10.174;2023-04-22T02:17:56;97358.09;;;13.04;72.34
19884;BME280;10104;50.732;10.174;2023-04-22T02:20:17;97355.38;;;12.86;73.46
19884;BME280;10104;50.732;10.174;2023-04-22T02:22:41;97358.13;;;12.73;76.78
19884;BME280;10104;50.732;10.174;2023-04-22T02:25:04;97356.31;;;12.67;75.26
19884;BME280;10104;50.732;10.174;2023-04-22T02:27:25;97351.94;;;12.79;74.24
19884;BME280;10104;50.732;10.174;2023-04-22T02:29:47;97352.66;;;12.68;74.87
19884;BME280;10104;50.732;10.174;2023-04-22T02:32:09;97348.69;;;12.52;77.07
19884;BME280;10104;50.732;10.174;2023-04-22T02:34:30;97345.69;;;12.35;77.74
19884;BME280;10104;50.732;10.174;2023-04-22T02:36:52;97342.81;;;12.37;77.64
19884;BME280;10104;50.732;10.174;2023-04-22T02:39:13;97349.78;;;12.38;77.51
19884;BME280;10104;50.732;10.174;2023-04-22T02:41:35;97345.69;;;12.35;78.40
19884;BME280;10104;50.732;10.174;2023-04-22T02:43:57;97347.28;;;12.43;77.89
19884;BME280;10104;50.732;10.174;2023-04-22T02:46:18;97348.69;;;12.52;77.69
19884;BME280;10104;50.732;10.174;2023-04-22T02:48:41;97350.56;;;12.45;77.72
19884;BME280;10104;50.732;10.174;2023-04-22T02:51:03;97346.16;;;12.64;75.59
19884;BME280;10104;50.732;10.174;2023-04-22T02:53:24;97350.75;;;12.75;74.68
19884;BME280;10104;50.732;10.174;2023-04-22T02:55:46;97348.84;;;12.88;73.67
19884;BME280;10104;50.732;10.174;2023-04-22T02:58:07;97351.53;;;12.82;74.04
19884;BME280;10104;50.732;10.174;2023-04-22T03:00:29;97351.88;;;12.92;72.96
19884;BME280;10104;50.732;10.174;2023-04-22T03:02:50;97354.69;;;12.97;72.57
19884;BME280;10104;50.732;10.174;2023-04-22T03:05:12;97350.19;;;12.97;73.30
19884;BME280;10104;50.732;10.174;2023-04-22T03:07:34;97342.88;;;12.93;73.19
19884;BME280;10104;50.732;10.174;2023-04-22T03:09:56;97352.09;;;13.15;72.82
19884;BME280;10104;50.732;10.174;2023-04-22T03:12:17;97353.84;;;12.96;73.85
19884;BME280;10104;50.732;10.174;2023-04-22T03:14:39;97354.72;;;12.90;74.87
19884;BME280;10104;50.732;10.174;2023-04-22T03:17:00;97357.22;;;13.10;73.28
19884;BME280;10104;50.732;10.174;2023-04-22T03:19:23;97355.97;;;13.19;73.26
19884;BME280;10104;50.732;10.174;2023-04-22T03:21:44;97356.13;;;13.24;72.81
19884;BME280;10104;50.732;10.174;2023-04-22T03:24:06;97348.81;;;13.20;72.91
19884;BME280;10104;50.732;10.174;2023-04-22T03:26:27;97345.69;;;13.48;71.37
19884;BME280;10104;50.732;10.174;2023-04-22T03:28:49;97342.78;;;13.31;72.45
19884;BME280;10104;50.732;10.174;2023-04-22T03:31:10;97343.16;;;13.34;71.96
19884;BME280;10104;50.732;10.174;2023-04-22T03:33:32;97348.34;;;13.66;70.22
19884;BME280;10104;50.732;10.174;2023-04-22T03:35:53;97347.13;;;13.68;70.28
19884;BME280;10104;50.732;10.174;2023-04-22T03:38:15;97346.09;;;13.69;70.23
19884;BME280;10104;50.732;10.174;2023-04-22T03:40:37;97352.44;;;13.68;70.28
19884;BME280;10104;50.732;10.174;2023-04-22T03:42:58;97345.34;;;13.81;69.90
19884;BME280;10104;50.732;10.174;2023-04-22T03:45:20;97355.25;;;13.92;68.58
19884;BME280;10104;50.732;10.174;2023-04-22T03:47:41;97342.97;;;13.91;68.65
19884;BME280;10104;50.732;10.174;2023-04-22T03:50:03;97351.91;;;13.96;68.55
19884;BME280;10104;50.732;10.174;2023-04-22T03:52:25;97360.19;;;14.06;67.68
19884;BME280;10104;50.732;10.174;2023-04-22T03:54:47;97350.81;;;14.04;67.33
19884;BME280;10104;50.732;10.174;2023-04-22T03:57:08;97357.47;;;14.13;66.70
19884;BME280;10104;50.732;10.174;2023-04-22T03:59:30;97351.75;;;14.09;67.09
19884;BME280;10104;50.732;10.174;2023-04-22T04:01:51;97344.50;;;14.16;66.02
19884;BME280;10104;50.732;10.174;2023-04-22T04:04:14;97348.22;;;13.97;66.86
19884;BME280;10104;50.732;10.174;2023-04-22T04:06:36;97346.44;;;14.09;66.08
19884;BME280;10104;50.732;10.174;2023-04-22T04:08:57;97344.38;;;14.11;65.53
19884;BME280;10104;50.732;10.174;2023-04-22T04:11:19;97348.00;;;13.81;67.73
19884;BME280;10104;50.732;10.174;2023-04-22T04:13:40;97352.94;;;13.77;68.05
19884;BME280;10104;50.732;10.174;2023-04-22T04:16:02;97353.31;;;13.81;67.74
19884;BME280;10104;50.732;10.174;2023-04-22T04:18:24;97349.25;;;13.96;66.74
19884;BME280;10104;50.732;10.174;2023-04-22T04:20:46;97345.63;;;14.09;65.97
19884;BME280;10104;50.732;10.174;2023-04-22T04:23:08;97343.63;;;14.04;65.66
19884;BME280;10104;50.732;10.174;2023-04-22T04:25:30;97343.63;;;14.04;65.84
19884;BME280;10104;50.732;10.174;2023-04-22T04:27:57;97342.59;;;14.05;65.71
19884;BME280;10104;50.732;10.174;2023-04-22T04:30:19;97346.06;;;14.06;65.44
19884;BME280;10104;50.732;10.174;2023-04-22T04:32:42;97349.03;;;13.98;65.54
19884;BME280;10104;50.732;10.174;2023-04-22T04:35:06;97348.06;;;14.10;64.69
19884;BME280;10104;50.732;10.174;2023-04-22T04:37:28;97335.03;;;14.02;65.11
19884;BME280;10104;50.732;10.174;2023-04-22T04:39:49;97345.47;;;14.04;65.18
19884;BME280;10104;50.732;10.174;2023-04-22T04:42:11;97341.41;;;14.01;65.37
19884;BME280;10104;50.732;10.174;2023-04-22T04:44:35;97345.63;;;13.91;66.11
19884;BME280;10104;50.732;10.174;2023-04-22T04:46:57;97350.75;;;13.74;67.28
19884;BME280;10104;50.732;10.174;2023-04-22T04:49:19;97344.00;;;13.71;67.60
19884;BME280;10104;50.732;10.174;2023-04-22T04:51:41;97344.13;;;13.58;68.34
19884;BME280;10104;50.732;10.174;2023-04-22T04:54:02;97346.78;;;13.58;68.71
19884;BME280;10104;50.732;10.174;2023-04-22T04:56:24;97349.38;;;13.65;68.92
19884;BME280;10104;50.732;10.174;2023-04-22T04:58:45;97341.47;;;13.76;68.12
19884;BME280;10104;50.732;10.174;2023-04-22T05:01:07;97345.34;;;13.81;68.33
19884;BME280;10104;50.732;10.174;2023-04-22T05:03:28;97347.41;;;13.78;68.88
19884;BME280;10104;50.732;10.174;2023-04-22T05:05:50;97346.72;;;13.83;68.80
19884;BME280;10104;50.732;10.174;2023-04-22T05:08:11;97348.22;;;13.97;68.04
19884;BME280;10104;50.732;10.174;2023-04-22T05:10:33;97343.72;;;13.98;68.03
19884;BME280;10104;50.732;10.174;2023-04-22T05:12:54;97345.84;;;14.07;67.31
19884;BME280;10104;50.732;10.174;2023-04-22T05:15:16;97352.13;;;14.13;66.28
19884;BME280;10104;50.732;10.174;2023-04-22T05:17:38;97349.06;;;14.28;66.44
19884;BME280;10104;50.732;10.174;2023-04-22T05:19:59;97348.31;;;14.39;65.66
19884;BME280;10104;50.732;10.174;2023-04-22T05:22:21;97356.31;;;14.39;64.80
19884;BME280;10104;50.732;10.174;2023-04-22T05:24:42;97352.63;;;14.40;64.69
19884;BME280;10104;50.732;10.174;2023-04-22T05:27:04;97352.19;;;14.43;64.75
19884;BME280;10104;50.732;10.174;2023-04-22T05:29:26;97357.09;;;14.57;63.61
19884;BME280;10104;50.732;10.174;2023-04-22T05:31:48;97363.53;;;14.68;63.73
19884;BME280;10104;50.732;10.174;2023-04-22T05:34:09;97361.09;;;14.78;62.88
19884;BME280;10104;50.732;10.174;2023-04-22T05:36:32;97364.22;;;14.75;62.60
19884;BME280;10104;50.732;10.174;2023-04-22T05:38:53;97360.78;;;14.86;62.44
19884;BME280;10104;50.732;10.174;2023-04-22T05:41:15;97365.31;;;14.86;62.73
19884;BME280;10104;50.732;10.174;2023-04-22T05:43:37;97354.53;;;14.81;63.15
19884;BME280;10104;50.732;10.174;2023-04-22T05:45:58;97357.53;;;14.84;63.28
19884;BME280;10104;50.732;10.174;2023-04-22T05:48:20;97360.22;;;14.96;63.02
19884;BME280;10104;50.732;10.174;2023-04-22T05:50:41;97363.59;;;15.03;62.84
19884;BME280;10104;50.732;10.174;2023-04-22T05:53:03;97356.56;;;15.32;61.51
19884;BME280;10104;50.732;10.174;2023-04-22T05:55:24;97355.50;;;15.21;61.78
19884;BME280;10104;50.732;10.174;2023-04-22T05:57:46;97352.72;;;15.05;63.21
19884;BME280;10104;50.732;10.174;2023-04-22T06:00:08;97344.84;;;15.21;62.33
19884;BME280;10104;50.732;10.174;2023-04-22T06:02:30;97350.16;;;15.10;62.81
19884;BME280;10104;50.732;10.174;2023-04-22T06:04:51;97340.66;;;15.37;62.39
19884;BME280;10104;50.732;10.174;2023-04-22T06:07:13;97338.34;;;15.17;63.52
19884;BME280;10104;50.732;10.174;2023-04-22T06:09:35;97333.34;;;15.21;64.01
19884;BME280;10104;50.732;10.174;2023-04-22T06:11:57;97338.00;;;15.25;63.61
19884;BME280;10104;50.732;10.174;2023-04-22T06:14:19;97339.63;;;15.38;63.83
19884;BME280;10104;50.732;10.174;2023-04-22T06:16:40;97341.47;;;15.49;63.52
19884;BME280;10104;50.732;10.174;2023-04-22T06:19:02;97343.00;;;15.57;62.84
19884;BME280;10104;50.732;10.174;2023-04-22T06:21:23;97347.78;;;15.66;61.82
19884;BME280;10104;50.732;10.174;2023-04-22T06:23:45;97344.06;;;15.67;62.65
19884;BME280;10104;50.732;10.174;2023-04-22T06:26:06;97333.47;;;15.84;61.08
19884;BME280;10104;50.732;10.174;2023-04-22T06:28:28;97333.25;;;15.86;61.82
19884;BME280;10104;50.732;10.174;2023-04-22T06:30:49;97335.91;;;15.86;61.95
19884;BME280;10104;50.732;10.174;2023-04-22T06:33:11;97333.22;;;15.97;61.95
19884;BME280;10104;50.732;10.174;2023-04-22T06:35:33;97338.19;;;15.94;60.74
19884;BME280;10104;50.732;10.174;2023-04-22T06:37:54;97339.03;;;16.34;59.10
19884;BME280;10104;50.732;10.174;2023-04-22T06:40:16;97332.25;;;16.43;58.28
19884;BME280;10104;50.732;10.174;2023-04-22T06:42:37;97344.03;;;16.59;57.45
19884;BME280;10104;50.732;10.174;2023-04-22T06:44:59;97338.22;;;16.90;55.93
19884;BME280;10104;50.732;10.174;2023-04-22T06:47:20;97336.19;;;17.14;55.29
19884;BME280;10104;50.732;10.174;2023-04-22T06:49:42;97318.94;;;17.22;55.77
19884;BME280;10104;50.732;10.174;2023-04-22T06:52:05;97329.28;;;17.35;55.27
19884;BME280;10104;50.732;10.174;2023-04-22T06:54:26;97339.34;;;17.28;55.49
19884;BME280;10104;50.732;10.174;2023-04-22T06:56:48;97336.25;;;17.36;54.88
19884;BME280;10104;50.732;10.174;2023-04-22T06:59:09;97332.19;;;17.50;55.06
19884;BME280;10104;50.732;10.174;2023-04-22T07:01:31;97330.56;;;17.66;52.89
19884;BME280;10104;50.732;10.174;2023-04-22T07:03:52;97330.97;;;17.58;52.45
19884;BME280;10104;50.732;10.174;2023-04-22T07:06:14;97336.31;;;17.58;53.40
19884;BME280;10104;50.732;10.174;2023-04-22T07:08:36;97338.69;;;17.71;53.49
19884;BME280;10104;50.732;10.174;2023-04-22T07:10:57;97327.72;;;17.94;51.63
19884;BME280;10104;50.732;10.174;2023-04-22T07:13:19;97324.53;;;17.97;52.70
19884;BME280;10104;50.732;10.174;2023-04-22T07:15:40;97331.66;;;17.87;53.34
19884;BME280;10104;50.732;10.174;2023-04-22T07:18:02;97335.13;;;18.09;51.44
19884;BME280;10104;50.732;10.174;2023-04-22T07:20:23;97334.22;;;18.20;50.69
19884;BME280;10104;50.732;10.174;2023-04-22T07:22:45;97335.94;;;18.31;50.56
19884;BME280;10104;50.732;10.174;2023-04-22T07:25:06;97335.28;;;18.19;51.76
19884;BME280;10104;50.732;10.174;2023-04-22T07:27:28;97329.22;;;18.29;51.64
19884;BME280;10104;50.732;10.174;2023-04-22T07:29:50;97328.59;;;18.22;51.62
19884;BME280;10104;50.732;10.174;2023-04-22T07:32:11;97333.34;;;18.14;51.69
19884;BME280;10104;50.732;10.174;2023-04-22T07:34:33;97322.53;;;18.31;51.90
19884;BME280;10104;50.732;10.174;2023-04-22T07:36:54;97329.25;;;18.34;53.02
19884;BME280;10104;50.732;10.174;2023-04-22T07:39:16;97329.09;;;18.18;52.30
19884;BME280;10104;50.732;10.174;2023-04-22T07:41:37;97327.22;;;17.97;51.90
19884;BME280;10104;50.732;10.174;2023-04-22T07:43:59;97336.94;;;18.03;53.39
19884;BME280;10104;50.732;10.174;2023-04-22T07:46:20;97323.81;;;18.02;52.75
19884;BME280;10104;50.732;10.174;2023-04-22T07:48:42;97323.00;;;18.01;51.90
19884;BME280;10104;50.732;10.174;2023-04-22T07:51:04;97325.38;;;18.19;51.93
19884;BME280;10104;50.732;10.174;2023-04-22T07:53:25;97328.59;;;18.22;52.81
19884;BME280;10104;50.732;10.174;2023-04-22T07:55:47;97322.78;;;18.30;52.02
19884;BME280;10104;50.732;10.174;2023-04-22T07:58:10;97327.03;;;18.26;50.88
19884;BME280;10104;50.732;10.174;2023-04-22T08:00:34;97328.22;;;18.13;51.10
19884;BME280;10104;50.732;10.174;2023-04-22T08:02:56;97320.97;;;18.35;52.14
19884;BME280;10104;50.732;10.174;2023-04-22T08:05:17;97317.53;;;18.62;52.00
19884;BME280;10104;50.732;10.174;2023-04-22T08:07:40;97320.63;;;18.75;50.76
19884;BME280;10104;50.732;10.174;2023-04-22T08:10:02;97319.44;;;18.93;50.95
19884;BME280;10104;50.732;10.174;2023-04-22T08:12:24;97318.38;;;18.94;50.43
19884;BME280;10104;50.732;10.174;2023-04-22T08:14:45;97317.78;;;19.19;49.75
19884;BME280;10104;50.732;10.174;2023-04-22T08:17:07;97319.97;;;19.27;49.10
19884;BME280;10104;50.732;10.174;2023-04-22T08:19:28;97313.28;;;19.29;49.83
19884;BME280;10104;50.732;10.174;2023-04-22T08:21:50;97309.75;;;19.61;48.49
19884;BME280;10104;50.732;10.174;2023-04-22T08:24:11;97313.72;;;19.53;49.29
19884;BME280;10104;50.732;10.174;2023-04-22T08:26:35;97319.47;;;19.67;49.98
19884;BME280;10104;50.732;10.174;2023-04-22T08:28:57;97309.31;;;19.74;49.31
19884;BME280;10104;50.732;10.174;2023-04-22T08:31:18;97311.75;;;19.81;49.09
19884;BME280;10104;50.732;10.174;2023-04-22T08:33:40;97291.91;;;19.87;50.12
19884;BME280;10104;50.732;10.174;2023-04-22T08:36:02;97290.31;;;20.01;49.62
19884;BME280;10104;50.732;10.174;2023-04-22T08:38:24;97293.88;;;20.16;48.77
19884;BME280;10104;50.732;10.174;2023-04-22T08:40:46;97287.66;;;20.06;49.21
19884;BME280;10104;50.732;10.174;2023-04-22T08:43:08;97284.97;;;20.06;48.16
19884;BME280;10104;50.732;10.174;2023-04-22T08:45:30;97283.91;;;20.07;48.65
19884;BME280;10104;50.732;10.174;2023-04-22T08:47:53;97281.16;;;19.87;47.81
19884;BME280;10104;50.732;10.174;2023-04-22T08:50:14;97280.69;;;20.05;48.13
19884;BME280;10104;50.732;10.174;2023-04-22T08:52:36;97280.44;;;20.11;50.02
19884;BME280;10104;50.732;10.174;2023-04-22T08:54:58;97276.66;;;20.12;48.90
19884;BME280;10104;50.732;10.174;2023-04-22T08:57:20;97282.44;;;20.51;48.51
19884;BME280;10104;50.732;10.174;2023-04-22T08:59:42;97281.38;;;20.57;48.26
19884;BME280;10104;50.732;10.174;2023-04-22T09:02:04;97277.63;;;20.58;47.17
19884;BME280;10104;50.732;10.174;2023-04-22T09:04:27;97277.91;;;20.77;47.87
19884;BME280;10104;50.732;10.174;2023-04-22T09:06:49;97284.88;;;20.63;46.24
19884;BME280;10104;50.732;10.174;2023-04-22T09:09:11;97275.50;;;20.96;47.26
19884;BME280;10104;50.732;10.174;2023-04-22T09:11:32;97271.97;;;21.06;46.16
19884;BME280;10104;50.732;10.174;2023-04-22T09:13:54;97270.88;;;21.47;46.44
19884;BME280;10104;50.732;10.174;2023-04-22T09:16:15;97271.69;;;21.53;44.63
19884;BME280;10104;50.732;10.174;2023-04-22T09:18:41;97270.72;;;21.98;43.73
19884;BME280;10104;50.732;10.174;2023-04-22T09:21:03;97269.91;;;21.92;44.56
19884;BME280;10104;50.732;10.174;2023-04-22T09:23:24;97275.84;;;21.99;42.92
19884;BME280;10104;50.732;10.174;2023-04-22T09:25:46;97273.63;;;22.16;44.36
19884;BME280;10104;50.732;10.174;2023-04-22T09:28:11;97269.19;;;21.76;42.93
19884;BME280;10104;50.732;10.174;2023-04-22T09:30:34;97271.59;;;21.83;44.04
19884;BME280;10104;50.732;10.174;2023-04-22T09:32:59;97270.59;;;21.59;45.71
19884;BME280;10104;50.732;10.174;2023-04-22T09:35:27;97272.72;;;21.72;45.08
19884;BME280;10104;50.732;10.174;2023-04-22T09:37:52;97271.81;;;21.92;44.34
19884;BME280;10104;50.732;10.174;2023-04-22T09:40:14;97270.97;;;22.06;45.20
19884;BME280;10104;50.732;10.174;2023-04-22T09:42:51;97274.84;;;21.75;43.50
19884;BME280;10104;50.732;10.174;2023-04-22T09:45:13;97275.13;;;22.38;45.30
19884;BME280;10104;50.732;10.174;2023-04-22T09:47:35;97266.97;;;22.48;43.70
19884;BME280;10104;50.732;10.174;2023-04-22T09:50:02;97272.94;;;22.45;44.19
19884;BME280;10104;50.732;10.174;2023-04-22T09:52:24;97271.84;;;22.41;45.84
19884;BME280;10104;50.732;10.174;2023-04-22T09:54:48;97270.28;;;22.40;44.26
19884;BME280;10104;50.732;10.174;2023-04-22T09:57:12;97266.16;;;22.03;43.96
19884;BME280;10104;50.732;10.174;2023-04-22T09:59:35;97268.94;;;21.68;42.74
19884;BME280;10104;50.732;10.174;2023-04-22T10:01:58;97265.34;;;22.03;43.59
19884;BME280;10104;50.732;10.174;2023-04-22T10:04:21;97262.38;;;21.94;45.53
19884;BME280;10104;50.732;10.174;2023-04-22T10:06:46;97261.72;;;22.28;44.85
19884;BME280;10104;50.732;10.174;2023-04-22T10:09:08;97256.16;;;22.48;45.05
19884;BME280;10104;50.732;10.174;2023-04-22T10:11:31;97254.25;;;22.92;44.24
19884;BME280;10104;50.732;10.174;2023-04-22T10:13:53;97245.81;;;23.28;42.35
19884;BME280;10104;50.732;10.174;2023-04-22T10:16:14;97248.44;;;23.38;41.71
19884;BME280;10104;50.732;10.174;2023-04-22T10:18:38;97244.28;;;23.46;40.74
19884;BME280;10104;50.732;10.174;2023-04-22T10:21:00;97236.78;;;23.43;40.28
19884;BME280;10104;50.732;10.174;2023-04-22T10:23:23;97244.56;;;23.49;39.82
19884;BME280;10104;50.732;10.174;2023-04-22T10:25:55;97241.69;;;23.88;41.22
19884;BME280;10104;50.732;10.174;2023-04-22T10:28:17;97243.63;;;23.83;40.50
19884;BME280;10104;50.732;10.174;2023-04-22T10:30:40;97242.88;;;24.43;39.73
19884;BME280;10104;50.732;10.174;2023-04-22T10:38:35;97231.72;;;24.45;38.12
19884;BME280;10104;50.732;10.174;2023-04-22T10:41:00;97242.38;;;25.11;38.47
19884;BME280;10104;50.732;10.174;2023-04-22T10:43:42;97241.00;;;24.95;39.13
19884;BME280;10104;50.732;10.174;2023-04-22T10:46:04;97229.81;;;25.15;38.56
19884;BME280;10104;50.732;10.174;2023-04-22T10:48:48;97228.06;;;25.52;38.82
19884;BME280;10104;50.732;10.174;2023-04-22T10:51:37;97224.38;;;25.75;39.09
19884;BME280;10104;50.732;10.174;2023-04-22T10:53:58;97227.59;;;25.63;38.72
19884;BME280;10104;50.732;10.174;2023-04-22T10:56:22;97221.41;;;26.12;37.96
19884;BME280;10104;50.732;10.174;2023-04-22T10:58:43;97216.22;;;25.75;36.48
19884;BME280;10104;50.732;10.174;2023-04-22T11:01:13;97217.28;;;25.33;36.20
19884;BME280;10104;50.732;10.174;2023-04-22T11:03:35;97216.56;;;25.14;37.91
19884;BME280;10104;50.732;10.174;2023-04-22T11:06:13;97214.06;;;25.31;37.34
19884;BME280;10104;50.732;10.174;2023-04-22T11:08:36;97205.78;;;24.95;36.84
19884;BME280;10104;50.732;10.174;2023-04-22T11:11:07;97211.13;;;25.60;38.28
19884;BME280;10104;50.732;10.174;2023-04-22T11:13:29;97204.78;;;25.64;36.63
19884;BME280;10104;50.732;10.174;2023-04-22T11:15:54;97199.47;;;25.73;36.55
19884;BME280;10104;50.732;10.174;2023-04-22T11:18:23;97204.06;;;25.86;37.19
19884;BME280;10104;50.732;10.174;2023-04-22T11:20:46;97200.34;;;25.55;38.31
19884;BME280;10104;50.732;10.174;2023-04-22T11:23:09;97201.38;;;25.72;39.14
19884;BME280;10104;50.732;10.174;2023-04-22T11:25:31;97194.25;;;25.76;37.26
19884;BME280;10104;50.732;10.174;2023-04-22T11:27:53;97191.56;;;26.12;37.84
19884;BME280;10104;50.732;10.174;2023-04-22T11:30:17;97198.06;;;26.61;36.33
19884;BME280;10104;50.732;10.174;2023-04-22T11:32:47;97194.91;;;27.12;36.66
19884;BME280;10104;50.732;10.174;2023-04-22T11:35:14;97192.41;;;26.93;35.35
19884;BME280;10104;50.732;10.174;2023-04-22T11:37:47;97185.50;;;27.18;35.39
19884;BME280;10104;50.732;10.174;2023-04-22T11:40:11;97189.09;;;27.36;34.97
19884;BME280;10104;50.732;10.174;2023-04-22T11:42:50;97187.41;;;27.49;34.50
19884;BME280;10104;50.732;10.174;2023-04-22T11:45:13;97200.81;;;26.83;34.66
19884;BME280;10104;50.732;10.174;2023-04-22T11:47:35;97181.75;;;27.36;34.67
19884;BME280;10104;50.732;10.174;2023-04-22T11:50:01;97177.63;;;27.39;33.90
19884;BME280;10104;50.732;10.174;2023-04-22T11:55:22;97182.09;;;26.60;35.31
19884;BME280;10104;50.732;10.174;2023-04-22T11:57:45;97179.69;;;26.58;35.45
19884;BME280;10104;50.732;10.174;2023-04-22T12:00:13;97177.31;;;26.43;35.16
19884;BME280;10104;50.732;10.174;2023-04-22T12:02:35;97175.16;;;26.17;35.44
19884;BME280;10104;50.732;10.174;2023-04-22T12:04:57;97177.69;;;26.50;34.12
19884;BME280;10104;50.732;10.174;2023-04-22T12:07:19;97170.31;;;26.64;33.57
19884;BME280;10104;50.732;10.174;2023-04-22T12:09:41;97165.72;;;26.95;33.46
19884;BME280;10104;50.732;10.174;2023-04-22T12:12:03;97165.63;;;27.40;33.80
19884;BME280;10104;50.732;10.174;2023-04-22T12:14:34;97160.31;;;27.74;32.75
19884;BME280;10104;50.732;10.174;2023-04-22T12:16:55;97156.28;;;27.72;32.42
19884;BME280;10104;50.732;10.174;2023-04-22T12:19:24;97147.03;;;27.82;32.53
19884;BME280;10104;50.732;10.174;2023-04-22T12:21:46;97152.22;;;28.52;32.67
19884;BME280;10104;50.732;10.174;2023-04-22T12:24:08;97145.16;;;28.68;30.47
19884;BME280;10104;50.732;10.174;2023-04-22T12:26:31;97142.59;;;29.27;30.96
19884;BME280;10104;50.732;10.174;2023-04-22T12:28:54;97147.50;;;30.30;29.68
19884;BME280;10104;50.732;10.174;2023-04-22T12:31:16;97146.50;;;30.35;29.62
19884;BME280;10104;50.732;10.174;2023-04-22T12:33:38;97146.53;;;30.47;28.28